Taunton 2W

41° 53' 56"N, 71° 08' 19"W, Elevation 50 ft.
Eastern Time

Hourly observations for the last 72 hours

Date Time Temperature (°F) Humi-
dity

(%)
Wind
(mph)
Pressure Rain (in) Sun
(W/m2)
UV ET
(in)
Air Dew 6 Hour 1 Hr 3 Hr 6 Hr Day
Alt
(in)
Sea
Level

(mb)
Max Min
18 00:00 62.5 59.5 90 SE 2 G 4 30.03 1017.1 0.00 0 0.0 0.227
17 23:00 63.9 59.3 85 SE 3 G 4 30.04 1017.2 0.00 0 0.0 0.226
17 22:00 63.3 58.7 85 SE 1 G 3 30.05 1017.5 0.00 0 0.0 0.225
17 21:00 66.9 58.7 75 SE 2 G 4 30.04 1017.4 0.00 0 0.0 0.224
17 20:00 72.8 58.6 87.5 72.8 61 SE 3 G 7 30.05 1017.5 0.00 19 0.0 0.221
17 19:00 77.1 58.7 53 SE 3 G 9 30.05 1017.5 0.00 160 0.0 0.213
17 18:00 80.1 58.1 47 S 5 G 13 30.03 1017.0 0.00 320 0.9 0.201
17 17:00 82.3 58.9 45 S 10 G 15 30.03 1017.0 0.00 533 2.2 0.184
17 16:00 85.6 62.5 46 SSW 7 G 12 30.02 1016.8 0.00 510 3.3 0.161
17 15:00 86.8 62.3 44 S 4 G 10 30.01 1016.4 0.00 779 5.6 0.137
17 14:00 86.8 58.9 87.0 68.5 39 SSE 2 G 6 30.01 1016.5 0.00 835 6.7 0.112
17 13:00 85.5 60.5 43 SW 4 G 9 30.03 1017.0 0.00 932 8.1 0.086
17 12:00 84.2 59.3 43 W 2 G 9 30.05 1017.7 0.00 905 7.7 0.061
17 11:00 82.7 59.2 45 NNW 4 G 7 30.06 1018.0 0.00 872 5.1 0.040
17 10:00 79.9 58.5 48 NNE 2 G 6 30.05 1017.8 0.00 751 4.8 0.022
17 09:00 75.6 62.1 63 N 4 G 7 30.05 1017.6 0.00 605 3.0 0.009
17 08:00 68.5 60.3 68.5 50.5 75 S 1 G 2 30.03 1017.1 0.00 441 1.5 0.002
17 07:00 58.7 56.4 92 Calm 30.04 1017.2 0.00 250 0.5 0.000
17 06:00 51.5 50.4 96 Calm 30.01 1016.4 0.00 33 0.0 0.000
17 05:00 50.7 49.6 96 Calm 30.00 1016.1 0.00 0 0.0 0.000
17 04:00 51.5 50.4 96 Calm 29.99 1015.5 0.00 0 0.0 0.000
17 03:00 52.2 50.8 95 Calm 29.98 1015.4 0.00 0 0.0 0.000
17 02:00 53.0 51.6 69.8 53.0 95 Calm 29.98 1015.3 0.00 0 0.0 0.000
17 01:00 54.6 52.9 94 Calm 29.98 1015.4 0.00 0 0.0 0.000
17 00:00 56.4 54.7 94 Calm 29.99 1015.5 0.00 0 0.0 0.203
16 23:00 58.8 56.2 91 Calm 29.98 1015.2 0.00 0 0.0 0.203
16 22:00 61.7 58.1 88 Calm 29.97 1014.9 0.00 0 0.0 0.202
16 21:00 65.8 59.8 81 SSW 1 G 3 29.94 1013.9 0.00 0 0.0 0.202
16 20:00 69.8 62.3 83.6 69.8 77 WSW 1 G 2 29.92 1013.3 0.00 12 0.0 0.200
16 19:00 79.5 60.4 52 WSW 2 G 7 29.91 1013.0 0.00 197 0.0 0.194
16 18:00 79.1 61.1 54 WNW 1 G 3 29.91 1012.9 0.00 188 0.7 0.187
16 17:00 81.5 56.2 42 WNW 2 G 6 29.91 1012.8 0.00 285 1.4 0.174
16 16:00 83.2 56.4 40 WNW 4 G 10 29.91 1012.7 0.00 429 3.3 0.154
16 15:00 82.9 54.7 38 W 2 G 12 29.91 1012.9 0.00 485 5.9 0.134
16 14:00 81.9 53.8 83.0 65.5 38 NW 6 G 11 29.91 1013.0 0.00 540 4.5 0.109
16 13:00 81.9 56.6 42 WNW 8 G 16 29.92 1013.1 0.00 937 8.0 0.083
16 12:00 80.9 57.6 45 NNW 10 G 15 29.93 1013.7 0.00 889 7.6 0.059
16 11:00 77.6 56.4 48 WNW 8 G 13 29.94 1014.1 0.00 643 6.1 0.039
16 10:00 74.8 59.5 59 NNW 6 G 10 29.95 1014.4 0.00 807 5.1 0.023
16 09:00 71.7 58.9 64 NW 5 G 10 29.97 1014.9 0.00 550 3.0 0.010
16 08:00 65.5 59.2 65.5 49.6 80 NW 4 G 5 29.97 1015.0 0.00 434 1.5 0.002
16 07:00 58.3 56.6 94 W 2 G 4 29.98 1015.2 0.00 243 0.5 0.000
16 06:00 50.1 49.6 98 SW 0 G 1 29.97 1014.8 0.00 25 0.0 0.000
16 05:00 50.5 50.0 98 Calm 29.95 1014.1 0.00 0 0.0 0.000
16 04:00 53.8 53.0 97 Calm 29.94 1014.0 0.00 0 0.0 0.000
16 03:00 55.5 54.7 97 WSW 1 G 2 29.95 1014.4 0.00 0 0.0 0.000
16 02:00 56.6 55.8 59.5 53.3 97 S 2 G 5 29.93 1013.7 0.00 0 0.0 0.000
16 01:00 57.7 56.9 97 S 3 G 5 29.94 1013.8 0.00 0 0.0 0.000
16 00:00 57.4 56.6 97 SW 1 G 5 29.94 1013.8 0.02 0 0.0 0.070
15 23:00 54.3 53.5 97 SSW 0 G 2 29.94 1013.8 0.02 0 0.0 0.070
15 22:00 54.5 53.4 96 WSW 1 G 2 29.94 1013.9 0.02 0 0.0 0.070
15 21:00 55.2 53.8 95 Calm 29.93 1013.6 0.02 0 0.0 0.070
15 20:00 59.5 56.6 65.0 59.4 90 N 0 G 1 29.93 1013.5 0.02 12 0.0 0.069
15 19:00 64.2 57.2 78 N 2 G 4 29.92 1013.4 0.02 165 0.0 0.066
15 18:00 64.7 57.0 76 N 1 G 4 29.92 1013.2 0.02 98 0.7 0.063
15 17:00 62.7 55.4 77 N 1 G 7 29.92 1013.3 0.02 51 0.0 0.059
15 16:00 64.7 56.6 75 ENE 1 G 5 29.91 1012.9 0.02 295 2.0 0.054
15 15:00 64.3 56.2 75 NW 1 G 7 29.90 1012.6 0.02 172 1.4 0.048
15 14:00 64.8 56.7 65.3 56.0 75 SE 1 G 4 29.89 1012.4 0.02 0.02 239 1.7 0.038
15 13:00 62.9 57.0 81 E 3 G 11 29.90 1012.5 0.02 533 4.2 0.027
15 12:00 61.4 56.2 83 W 2 G 5 29.91 1012.9 0.02 285 2.2 0.019
15 11:00 58.4 54.9 88 SSW 1 G 3 29.91 1013.0 0.02 0.02 179 1.2 0.015
15 10:00 57.0 54.4 91 ENE 3 G 7 29.89 1012.4 0.02 162 0.9 0.011
15 09:00 56.1 54.1 93 NE 4 G 9 29.88 1011.9 0.02 0.02 214 1.1 0.009
15 08:00 57.3 54.7 63.6 57.3 91 NE 5 G 8 29.89 1012.2 0.00 35 0.0 0.008
15 07:00 57.8 54.6 89 ENE 3 G 7 29.86 1011.4 0.00 58 0.0 0.007
15 06:00 58.0 54.8 89 ENE 4 G 6 29.84 1010.6 0.00 26 0.0 0.007
15 05:00 58.6 55.4 89 NNE 2 G 9 29.82 1009.8 0.00 0 0.0 0.006
15 04:00 59.9 55.7 86 NE 3 G 8 29.81 1009.4 0.00 0 0.0 0.005
15 03:00 62.5 55.6 78 NW 3 G 4 29.78 1008.6 0.00 0 0.0 0.004
15 02:00 63.5 55.1 68.8 63.5 74 NW 4 G 8 29.78 1008.5 0.00 0 0.0 0.002
15 01:00 64.3 55.5 73 NNW 4 G 11 29.78 1008.6 0.00 0 0.0 0.000

Data generated by WxSolution Version 1.9.1.5, Build 2018.05.20.